03I weather

CLOSED Clarks Dream Strip
Circleville, Ohio, United States

Public forecast

Using degrees Fahrenheit for public forecast. Weather courtesy of forecast.io.

Closest aviation weather report (METAR) to Clarks Dream Strip

Closest report is Rickenbacker International Airport, 11.0 nm (20.4 km) NNE. Retrieved 2020/06/03 13:55 UTC (54 minutes ago):

KLCK 031355Z AUTO 25014G19KT CLR 25/16 A2984 RMK AO2 T02510160

Closest aviation forecast (TAF) to Clarks Dream Strip

Closest forecast is Rickenbacker International Airport, 11.0 nm (20.4 km) NNE. Retrieved 2020/06/03 12:39 UTC (2 hours ago):

TAF KLCK 031135Z 0312/0412 23009KT P6SM SCT150 FM031500 24010G20KT P6SM SCT035 FM032200 26012G22KT P6SM VCTS BKN040CB FM040200 26012KT P6SM -SHRA BKN035 FM040700 22008KT P6SM VCSH BKN035 TEMPO 0408/0411 -SHRA